Time;durP1;ratioP1;P1;durP2;ratioP2;P2;SDS_P1;SDS_P2;PMS_P1;PMS_P2;Temp;Humidity;BMP_temperature;BMP_pressure;BME280_temperature;BME280_humidity;BME280_pressure;Samples;Min_cycle;Max_cycle;Signal;HPM_P1;HPM_P2
2023/10/27 00:01:19;;;;;;;16.90;5.00;;;10.10;99.90;;;10.04;100.00;98951.22;4807212;29;20565;-69
2023/10/27 00:03:48;;;;;;;18.53;4.97;;;10.00;99.90;;;10.08;100.00;98946.13;4812389;29;20453;-68
2023/10/27 00:06:17;;;;;;;14.13;4.97;;;10.10;99.90;;;10.34;100.00;98940.09;4807478;29;20500;-68
2023/10/27 00:08:45;;;;;;;12.07;6.03;;;10.20;99.90;;;10.30;100.00;98948.94;4817108;29;20446;-68
2023/10/27 00:11:14;;;;;;;11.67;4.83;;;10.20;99.90;;;10.30;100.00;98954.34;4806830;29;20451;-67
2023/10/27 00:13:43;;;;;;;14.07;9.50;;;10.20;99.90;;;10.38;100.00;98949.34;4806458;29;20457;-68
2023/10/27 00:16:14;;;;;;;10.93;5.20;;;10.20;99.90;;;10.25;100.00;98946.16;4812046;29;20454;-68
2023/10/27 00:18:43;;;;;;;13.77;5.13;;;10.30;99.90;;;10.26;100.00;98940.50;4809169;29;20457;-69
2023/10/27 00:21:12;;;;;;;12.00;5.87;;;10.20;99.90;;;10.22;100.00;98941.22;4819125;29;20834;-67
2023/10/27 00:23:40;;;;;;;10.10;4.80;;;10.20;99.90;;;10.20;100.00;98937.97;4820912;29;20471;-68
2023/10/27 00:26:11;;;;;;;12.80;6.23;;;10.10;99.90;;;10.30;100.00;98943.53;4808654;29;20409;-68
2023/10/27 00:28:47;;;;;;;14.47;5.37;;;10.20;99.90;;;10.19;100.00;98936.34;4806853;29;20445;-68
2023/10/27 00:31:16;;;;;;;13.37;5.47;;;10.20;99.90;;;10.16;100.00;98947.66;4810018;29;20952;-68
2023/10/27 00:33:44;;;;;;;14.03;5.27;;;10.10;99.90;;;10.07;100.00;98938.28;4821177;29;20868;-68
2023/10/27 00:36:13;;;;;;;10.70;5.67;;;10.10;99.90;;;10.11;100.00;98939.44;4823365;29;20541;-69
2023/10/27 00:38:45;;;;;;;9.67;6.30;;;10.10;99.90;;;10.09;100.00;98941.53;4815965;29;20478;-67
2023/10/27 00:41:14;;;;;;;10.90;5.13;;;10.10;99.90;;;10.12;100.00;98924.84;4821951;29;20493;-68
2023/10/27 00:43:42;;;;;;;18.07;5.50;;;10.10;99.90;;;10.11;100.00;98912.41;4820761;29;20857;-67
2023/10/27 00:46:13;;;;;;;13.10;6.10;;;10.10;99.90;;;10.11;100.00;98915.09;4805883;29;20439;-68
2023/10/27 00:48:41;;;;;;;11.77;4.77;;;10.10;99.90;;;10.08;100.00;98919.09;4819633;29;20866;-68
2023/10/27 00:51:11;;;;;;;13.70;5.93;;;10.10;99.90;;;10.02;100.00;98914.72;4820507;29;20433;-68
2023/10/27 00:53:40;;;;;;;13.07;5.07;;;10.10;99.90;;;10.06;100.00;98904.22;4820730;29;20483;-68
2023/10/27 00:56:08;;;;;;;9.00;4.40;;;10.00;99.90;;;10.05;100.00;98906.09;4813914;29;20485;-68
2023/10/27 00:58:38;;;;;;;13.60;5.20;;;10.10;99.90;;;10.08;100.00;98902.06;4824034;29;20478;-68
2023/10/27 01:01:11;;;;;;;11.70;7.77;;;10.10;99.90;;;10.03;100.00;98905.50;4814357;29;20476;-68
2023/10/27 01:03:42;;;;;;;13.47;6.73;;;10.00;99.90;;;9.97;100.00;98904.59;4806518;29;20463;-68
2023/10/27 01:06:11;;;;;;;15.77;6.30;;;10.00;99.90;;;10.15;100.00;98908.13;4806848;29;20462;-68
2023/10/27 01:08:40;;;;;;;23.80;8.43;;;10.00;99.90;;;10.11;100.00;98909.69;4825062;29;20458;-68
2023/10/27 01:11:09;;;;;;;12.80;5.70;;;10.10;99.90;;;10.12;100.00;98901.31;4818740;29;21187;-68
2023/10/27 01:13:37;;;;;;;17.70;7.00;;;10.00;99.90;;;10.00;100.00;98892.50;4805820;29;20473;-67
2023/10/27 01:16:07;;;;;;;14.30;8.17;;;10.00;99.90;;;10.04;100.00;98899.88;4825155;29;20477;-69
2023/10/27 01:18:35;;;;;;;22.50;7.90;;;10.00;99.90;;;10.07;100.00;98903.16;4822039;29;20527;-69
2023/10/27 01:21:05;;;;;;;16.57;6.77;;;10.00;99.90;;;10.15;100.00;98905.44;4809778;29;20531;-69
2023/10/27 01:23:35;;;;;;;23.40;7.30;;;10.00;99.90;;;10.09;100.00;98898.31;4810924;29;20482;-68
2023/10/27 01:26:04;;;;;;;22.47;8.63;;;10.00;99.90;;;10.02;100.00;98893.88;4822039;29;20997;-68
2023/10/27 01:28:34;;;;;;;17.40;6.60;;;10.00;99.90;;;9.92;100.00;98893.72;4805323;29;20425;-67
2023/10/27 01:31:02;;;;;;;13.93;5.60;;;9.90;99.90;;;9.86;100.00;98892.03;4818827;29;20985;-69
2023/10/27 01:33:31;;;;;;;17.50;7.57;;;9.90;99.90;;;9.82;100.00;98893.59;4818088;29;20483;-69
2023/10/27 01:35:59;;;;;;;24.13;8.57;;;9.80;99.90;;;9.80;100.00;98890.31;4815369;29;20458;-69
2023/10/27 01:38:27;;;;;;;22.53;9.73;;;9.80;99.90;;;9.80;100.00;98879.50;4826168;29;20871;-68
2023/10/27 01:40:57;;;;;;;18.37;6.67;;;9.80;99.90;;;9.82;100.00;98877.38;4819357;29;21032;-69
2023/10/27 01:43:26;;;;;;;22.03;7.93;;;9.80;99.90;;;9.84;100.00;98882.53;4819088;29;21022;-67
2023/10/27 01:45:57;;;;;;;16.53;6.43;;;9.80;99.90;;;10.09;100.00;98876.69;4809699;29;20446;-68
2023/10/27 01:48:25;;;;;;;25.20;9.20;;;9.90;99.90;;;10.01;100.00;98870.66;4804085;29;20435;-68
2023/10/27 01:50:54;;;;;;;20.10;6.80;;;9.90;99.90;;;10.00;100.00;98868.19;4814891;29;20454;-68
2023/10/27 01:53:23;;;;;;;20.77;8.97;;;9.90;99.90;;;9.96;100.00;98857.06;4821545;29;20471;-68
2023/10/27 01:55:51;;;;;;;19.87;8.67;;;10.00;99.90;;;9.99;100.00;98867.38;4817481;29;20458;-68
2023/10/27 01:58:21;;;;;;;21.10;6.77;;;9.90;99.90;;;9.98;100.00;98864.91;4809005;29;21030;-69
2023/10/27 02:00:50;;;;;;;24.37;8.47;;;9.90;99.90;;;9.91;100.00;98870.50;4817464;29;20492;-68
2023/10/27 02:03:19;;;;;;;26.43;7.70;;;9.90;99.90;;;9.88;100.00;98865.56;4832591;29;20469;-68
2023/10/27 02:05:47;;;;;;;20.70;7.33;;;9.90;99.90;;;9.87;100.00;98868.53;4819828;29;20451;-68
2023/10/27 02:08:16;;;;;;;20.90;6.80;;;9.80;99.90;;;9.86;100.00;98862.31;4805192;29;20446;-68
2023/10/27 02:10:45;;;;;;;31.00;8.80;;;9.80;99.90;;;9.91;100.00;98864.28;4822077;29;20444;-68
2023/10/27 02:13:17;;;;;;;17.00;8.40;;;9.80;99.90;;;9.94;100.00;98864.59;4810474;29;20825;-68
2023/10/27 02:15:47;;;;;;;30.30;11.27;;;9.90;99.90;;;9.95;100.00;98866.22;4809939;29;20459;-68
2023/10/27 02:18:15;;;;;;;20.87;6.00;;;9.90;99.90;;;9.85;100.00;98866.06;4804454;29;20447;-68
2023/10/27 02:20:44;;;;;;;24.87;9.43;;;9.80;99.90;;;10.01;100.00;98865.25;4820332;29;20477;-68
2023/10/27 02:23:13;;;;;;;22.20;9.60;;;9.90;99.90;;;9.99;100.00;98861.97;4805070;29;20535;-68
2023/10/27 02:25:41;;;;;;;18.07;8.77;;;9.90;99.90;;;9.95;100.00;98863.53;4804862;29;20517;-67
2023/10/27 02:28:10;;;;;;;12.13;5.30;;;9.90;99.90;;;9.99;100.00;98867.38;4825805;29;20543;-70
2023/10/27 02:30:39;;;;;;;17.67;7.07;;;9.90;99.90;;;10.18;100.00;98865.25;4804341;29;20486;-70
2023/10/27 02:33:09;;;;;;;11.67;7.50;;;10.10;99.90;;;9.99;100.00;98861.97;4802664;29;21021;-70
2023/10/27 02:35:37;;;;;;;21.97;8.40;;;10.00;99.90;;;9.95;100.00;98863.53;4802409;29;20539;-69
2023/10/27 02:38:06;;;;;;;12.73;6.27;;;10.00;99.90;;;10.03;100.00;98860.41;4807745;29;20421;-70
2023/10/27 02:40:36;;;;;;;16.80;5.87;;;10.00;99.90;;;10.24;100.00;98863.44;4818826;29;20542;-68
2023/10/27 02:43:07;;;;;;;32.00;7.97;;;10.10;99.90;;;10.27;100.00;98871.03;4809098;29;20574;-70
2023/10/27 02:45:38;;;;;;;17.83;6.47;;;10.10;99.90;;;10.14;100.00;98864.06;4807570;29;20842;-70
2023/10/27 02:48:08;;;;;;;15.70;7.93;;;10.10;99.90;;;10.24;100.00;98866.97;4806581;29;20497;-69
2023/10/27 02:50:37;;;;;;;16.33;4.60;;;10.20;99.90;;;10.34;100.00;98874.38;4820236;29;20439;-69
2023/10/27 02:53:05;;;;;;;16.27;6.37;;;10.20;99.90;;;10.38;100.00;98880.94;4827647;29;20462;-71
2023/10/27 02:55:36;;;;;;;15.80;6.83;;;10.20;99.90;;;10.48;100.00;98875.66;4823413;29;20484;-69
2023/10/27 02:58:05;;;;;;;13.03;5.80;;;10.30;99.90;;;10.56;100.00;98886.03;4823989;29;20467;-70
2023/10/27 03:00:33;;;;;;;13.90;6.17;;;10.30;99.90;;;10.45;100.00;98890.50;4808900;29;21394;-71
2023/10/27 03:03:02;;;;;;;43.43;18.77;;;10.30;99.90;;;10.61;100.00;98885.28;4805713;29;20482;-71
2023/10/27 03:05:31;;;;;;;44.33;18.87;;;10.50;99.90;;;10.55;100.00;98887.13;4804009;29;20826;-71
2023/10/27 03:08:00;;;;;;;17.83;7.73;;;10.40;99.90;;;10.46;100.00;98888.59;4802002;29;20495;-70
2023/10/27 03:10:28;;;;;;;31.80;10.77;;;10.40;99.90;;;10.30;100.00;98884.06;4819476;29;20523;-70
2023/10/27 03:12:56;;;;;;;14.23;6.43;;;10.30;99.90;;;10.24;100.00;98885.06;4826794;29;20469;-70
2023/10/27 03:15:24;;;;;;;42.10;15.40;;;10.20;99.90;;;10.22;100.00;98888.00;4826926;29;20605;-70
2023/10/27 03:17:53;;;;;;;25.27;11.07;;;10.20;99.90;;;10.33;100.00;98884.38;4824269;29;20898;-70
2023/10/27 03:20:21;;;;;;;20.30;6.90;;;10.20;99.90;;;10.32;100.00;98881.91;4828535;29;20470;-70
2023/10/27 03:22:51;;;;;;;20.80;9.97;;;10.30;99.90;;;10.32;100.00;98888.16;4812772;29;21003;-70
2023/10/27 03:25:19;;;;;;;25.10;10.23;;;10.30;99.90;;;10.24;100.00;98885.06;4809972;29;20680;-70
2023/10/27 03:27:49;;;;;;;18.63;9.40;;;10.20;99.90;;;10.17;100.00;98884.41;4826047;29;20516;-71
2023/10/27 03:30:17;;;;;;;18.30;9.00;;;10.20;99.90;;;10.22;100.00;98877.19;4810106;29;20455;-69
2023/10/27 03:32:46;;;;;;;10.73;6.20;;;10.20;99.90;;;10.13;100.00;98881.34;4808209;29;20871;-69
2023/10/27 03:35:16;;;;;;;13.80;5.70;;;10.10;99.90;;;10.02;100.00;98883.06;4812877;29;20508;-69
2023/10/27 03:37:44;;;;;;;10.67;6.80;;;10.10;99.90;;;10.22;100.00;98876.38;4812771;29;20897;-70
2023/10/27 03:40:14;;;;;;;15.93;7.70;;;10.10;99.90;;;10.27;100.00;98882.66;4814003;29;20428;-69
2023/10/27 03:42:44;;;;;;;13.70;7.93;;;10.20;99.90;;;10.24;100.00;98879.66;4812979;29;20493;-69
2023/10/27 03:45:13;;;;;;;20.77;8.23;;;10.20;99.90;;;10.29;100.00;98882.44;4809102;29;20486;-71
2023/10/27 03:47:41;;;;;;;16.37;7.33;;;10.20;99.90;;;10.44;100.00;98888.06;4808000;29;20447;-71
2023/10/27 03:50:13;;;;;;;8.77;4.80;;;10.30;99.90;;;10.32;100.00;98887.31;4805863;29;20461;-69
2023/10/27 03:52:42;;;;;;;8.30;5.50;;;10.30;99.90;;;10.24;100.00;98890.47;4807548;29;20525;-69
2023/10/27 03:55:11;;;;;;;17.33;6.03;;;10.20;99.90;;;10.22;100.00;98881.78;4814604;29;20426;-70
2023/10/27 03:57:42;;;;;;;14.50;6.50;;;10.20;99.90;;;10.17;100.00;98870.88;4808446;29;20459;-70
2023/10/27 04:00:13;;;;;;;14.73;5.93;;;10.20;99.90;;;10.15;100.00;98881.09;4805771;29;20422;-69
2023/10/27 04:02:42;;;;;;;12.00;5.40;;;10.10;99.90;;;10.00;100.00;98876.28;4808659;29;20590;-69
2023/10/27 04:05:10;;;;;;;13.43;5.83;;;10.00;99.90;;;10.08;100.00;98869.63;4808495;29;20497;-69
2023/10/27 04:07:42;;;;;;;16.80;6.37;;;10.10;99.90;;;10.01;100.00;98865.25;4816099;29;20409;-70
2023/10/27 04:10:10;;;;;;;16.23;8.10;;;10.00;99.90;;;10.01;100.00;98873.34;4811346;29;20418;-69
2023/10/27 04:12:39;;;;;;;12.83;5.40;;;10.00;99.90;;;10.11;100.00;98863.75;4805114;29;21001;-70
2023/10/27 04:15:10;;;;;;;15.93;5.87;;;10.00;99.90;;;10.02;100.00;98855.25;4819598;29;20446;-72
2023/10/27 04:17:38;;;;;;;10.70;5.40;;;10.00;99.90;;;9.98;100.00;98859.50;4823507;29;20439;-69
2023/10/27 04:20:08;;;;;;;6.77;5.40;;;10.00;99.90;;;9.88;100.00;98859.34;4824731;29;20484;-72
2023/10/27 04:22:37;;;;;;;14.83;5.90;;;10.00;99.90;;;9.80;100.00;98862.47;4831667;29;20461;-71
2023/10/27 04:25:06;;;;;;;10.53;6.23;;;9.90;99.90;;;9.79;100.00;98858.94;4808476;29;20454;-69
2023/10/27 04:27:35;;;;;;;11.33;5.70;;;9.80;99.90;;;9.89;100.00;98861.81;4805940;29;20461;-68
2023/10/27 04:30:07;;;;;;;9.60;5.23;;;9.90;99.90;;;9.79;100.00;98871.63;4808806;29;20454;-70
2023/10/27 04:32:38;;;;;;;18.10;7.90;;;9.80;99.90;;;9.79;100.00;98858.94;4802318;29;20510;-69
2023/10/27 04:35:07;;;;;;;10.63;5.23;;;9.80;99.90;;;9.72;100.00;98861.00;4810597;29;20506;-68
2023/10/27 04:37:36;;;;;;;12.47;6.70;;;9.80;99.90;;;9.78;100.00;98856.50;4805264;29;20507;-70
2023/10/27 04:40:05;;;;;;;10.23;4.40;;;9.80;99.90;;;9.87;100.00;98855.84;4814621;29;20890;-70
2023/10/27 04:42:34;;;;;;;13.70;7.20;;;9.80;99.90;;;9.87;100.00;98858.56;4811236;29;20461;-69
2023/10/27 04:45:03;;;;;;;16.97;5.63;;;9.80;99.90;;;9.85;100.00;98855.28;4806093;29;20421;-69
2023/10/27 04:47:31;;;;;;;13.85;7.07;;;9.80;99.90;;;9.80;100.00;98855.19;4807446;29;20459;-70
2023/10/27 04:50:01;;;;;;;25.17;6.97;;;9.80;99.90;;;9.82;100.00;98852.25;4812536;29;20216;-70
2023/10/27 04:52:29;;;;;;;18.20;5.70;;;9.80;99.90;;;9.82;100.00;98850.38;4805791;29;20948;-71
2023/10/27 04:54:58;;;;;;;18.20;6.83;;;9.80;99.90;;;9.82;100.00;98855.78;4812024;29;20535;-70
2023/10/27 04:57:26;;;;;;;17.47;7.77;;;9.80;99.90;;;9.89;100.00;98845.59;4803470;29;20409;-70
2023/10/27 04:59:56;;;;;;;9.37;4.80;;;9.80;99.90;;;9.82;100.00;98849.53;4806706;29;20443;-72
2023/10/27 05:02:24;;;;;;;14.07;4.93;;;9.80;99.90;;;9.81;100.00;98846.03;4817482;29;20532;-70
2023/10/27 05:04:55;;;;;;;14.83;8.70;;;9.80;99.90;;;9.78;100.00;98837.59;4799048;29;20463;-71
2023/10/27 05:07:25;;;;;;;14.00;8.57;;;9.80;99.90;;;9.90;100.00;98841.84;4805445;29;20428;-70
2023/10/27 05:09:54;;;;;;;13.80;6.75;;;9.80;99.90;;;9.85;100.00;98844.47;4824217;29;20445;-71
2023/10/27 05:12:22;;;;;;;16.97;8.40;;;9.80;99.90;;;9.81;100.00;98831.69;4804850;29;20217;-70
2023/10/27 05:14:51;;;;;;;12.13;6.20;;;9.80;99.90;;;9.80;100.00;98841.69;4807774;29;20853;-69
2023/10/27 05:17:19;;;;;;;13.37;8.07;;;9.80;99.90;;;9.81;100.00;98843.31;4807295;29;20962;-69
2023/10/27 05:19:48;;;;;;;14.13;7.20;;;9.80;99.90;;;9.81;100.00;98840.63;4806493;29;20484;-70
2023/10/27 05:22:18;;;;;;;21.53;7.13;;;9.80;99.90;;;9.86;100.00;98840.69;4807861;29;21126;-71
2023/10/27 05:24:48;;;;;;;12.17;6.47;;;9.80;99.90;;;9.89;100.00;98834.78;4805901;29;20424;-69
2023/10/27 05:27:16;;;;;;;12.60;6.10;;;9.80;99.90;;;9.87;100.00;98836.94;4810959;29;20520;-72
2023/10/27 05:29:45;;;;;;;12.90;5.60;;;9.80;99.90;;;9.83;100.00;98840.34;4810483;29;20446;-70
2023/10/27 05:32:13;;;;;;;13.30;6.80;;;9.80;99.90;;;9.85;100.00;98844.47;4803895;29;20433;-70
2023/10/27 05:34:42;;;;;;;11.27;6.67;;;9.80;99.90;;;9.90;100.00;98844.53;4807565;29;20450;-70
2023/10/27 05:37:11;;;;;;;13.00;4.90;;;9.80;99.90;;;9.83;100.00;98835.78;4824480;29;20457;-70
2023/10/27 05:39:41;;;;;;;16.83;7.83;;;9.80;99.90;;;9.86;100.00;98840.69;4802857;29;20471;-68
2023/10/27 05:42:11;;;;;;;17.00;8.90;;;9.80;99.90;;;9.90;100.00;98835.63;4812431;29;20860;-69
2023/10/27 05:44:41;;;;;;;16.83;9.23;;;9.80;99.90;;;9.94;100.00;98842.16;4811301;29;20904;-69
2023/10/27 05:47:09;;;;;;;16.50;7.10;;;9.90;99.90;;;9.85;100.00;98841.75;4811644;29;20473;-70
2023/10/27 05:49:37;;;;;;;14.03;6.07;;;9.90;99.90;;;9.94;100.00;98834.88;4805924;29;20445;-72
2023/10/27 05:52:06;;;;;;;25.10;7.37;;;9.90;99.90;;;9.87;100.00;98847.75;4800784;29;20429;-69
2023/10/27 05:54:34;;;;;;;11.40;5.83;;;9.90;99.90;;;9.85;100.00;98838.25;4802794;29;20905;-68
2023/10/27 05:57:03;;;;;;;13.97;5.30;;;9.90;99.90;;;9.93;100.00;98837.81;4807948;29;20520;-69
2023/10/27 05:59:33;;;;;;;15.87;7.40;;;9.90;99.90;;;9.89;100.00;98836.69;4804475;29;20451;-69
2023/10/27 06:02:01;;;;;;;11.73;7.00;;;9.80;99.90;;;9.91;100.00;98851.59;4801703;29;20461;-69
2023/10/27 06:04:43;;;;;;;14.80;5.57;;;9.90;99.90;;;9.82;100.00;98853.06;4806673;29;20471;-69
2023/10/27 06:07:15;;;;;;;11.37;6.07;;;9.90;99.90;;;10.09;100.00;98849.66;4812761;29;20424;-69
2023/10/27 06:09:44;;;;;;;10.70;5.60;;;10.00;99.90;;;9.95;100.00;98850.03;4806059;29;20466;-67
2023/10/27 06:12:13;;;;;;;10.57;5.40;;;9.90;99.90;;;9.86;100.00;98851.50;4825717;29;20418;-69
2023/10/27 06:14:45;;;;;;;13.63;5.90;;;9.90;99.90;;;9.84;100.00;98845.53;4808607;29;20482;-69
2023/10/27 06:17:14;;;;;;;12.20;3.77;;;9.90;99.90;;;9.90;100.00;98841.84;4804696;29;20405;-69
2023/10/27 06:19:43;;;;;;;18.93;7.80;;;9.90;99.90;;;9.94;100.00;98842.16;4810079;29;20437;-69
2023/10/27 06:22:14;;;;;;;17.50;5.40;;;9.90;99.90;;;9.95;100.00;98839.22;4801645;29;21098;-68
2023/10/27 06:24:42;;;;;;;13.47;5.57;;;9.90;99.90;;;9.95;100.00;98847.31;4818496;29;21089;-69
2023/10/27 06:27:11;;;;;;;11.43;6.17;;;9.90;99.90;;;9.97;100.00;98847.88;4809541;29;20424;-69
2023/10/27 06:29:39;;;;;;;17.77;6.53;;;9.90;99.90;;;9.98;100.00;98849.50;4807625;29;20442;-68
2023/10/27 06:32:09;;;;;;;12.93;7.00;;;10.00;99.90;;;9.97;100.00;98853.28;4808268;29;20500;-69
2023/10/27 06:34:37;;;;;;;12.77;7.77;;;9.90;99.90;;;9.96;100.00;98854.38;4809980;29;20424;-68
2023/10/27 06:37:06;;;;;;;12.43;6.17;;;9.90;99.90;;;9.91;100.00;98854.28;4808191;29;20434;-69
2023/10/27 06:39:35;;;;;;;17.77;7.17;;;9.90;99.90;;;9.94;100.00;98861.88;4806212;29;20455;-69
2023/10/27 06:42:05;;;;;;;14.23;5.70;;;9.90;99.90;;;10.02;100.00;98866.88;4805088;29;20478;-70
2023/10/27 06:44:33;;;;;;;18.90;6.83;;;10.00;99.90;;;10.09;100.00;98866.69;4806833;29;20561;-69
2023/10/27 06:47:02;;;;;;;15.13;6.60;;;10.00;99.90;;;10.03;100.00;98871.22;4806601;29;20467;-69
2023/10/27 06:49:32;;;;;;;21.13;8.27;;;10.00;99.90;;;10.03;100.00;98876.63;4809396;29;20433;-68
2023/10/27 06:52:01;;;;;;;8.20;3.90;;;10.00;99.90;;;10.04;100.00;98880.13;4809696;29;20507;-70
2023/10/27 06:54:30;;;;;;;10.30;4.60;;;10.00;99.90;;;10.06;100.00;98883.41;4814209;29;20911;-69
2023/10/27 06:56:58;;;;;;;18.77;8.10;;;10.00;99.90;;;10.08;100.00;98891.25;4813475;29;20454;-69
2023/10/27 06:59:29;;;;;;;16.23;7.47;;;10.00;99.90;;;10.08;100.00;98891.25;4816706;29;20428;-69
2023/10/27 07:01:57;;;;;;;13.07;5.33;;;10.00;99.90;;;10.08;100.00;98892.09;4808776;29;20773;-68
2023/10/27 07:04:25;;;;;;;16.63;6.80;;;10.00;99.90;;;10.01;100.00;98889.56;4813055;29;20448;-67
2023/10/27 07:06:55;;;;;;;11.97;5.50;;;10.00;99.90;;;9.98;100.00;98894.63;4804852;29;20463;-69
2023/10/27 07:09:26;;;;;;;22.17;8.00;;;9.90;99.90;;;9.95;100.00;98890.53;4808178;29;20447;-68
2023/10/27 07:11:55;;;;;;;15.27;6.47;;;9.90;99.90;;;10.12;100.00;98897.84;4810028;29;20433;-68
2023/10/27 07:14:23;;;;;;;11.83;7.00;;;10.00;99.90;;;10.10;100.00;98892.66;4808637;29;20413;-69
2023/10/27 07:16:54;;;;;;;17.23;6.50;;;10.00;99.90;;;10.02;100.00;98901.19;4807395;29;20475;-70
2023/10/27 07:19:25;;;;;;;10.80;6.83;;;10.00;99.90;;;10.00;100.00;98892.50;4813531;29;20417;-69
2023/10/27 07:21:55;;;;;;;9.93;5.37;;;10.00;99.90;;;10.05;100.00;98898.00;4811265;29;20442;-69
2023/10/27 07:24:23;;;;;;;20.40;6.47;;;10.00;99.90;;;10.04;100.00;98896.34;4810148;29;20566;-69
2023/10/27 07:26:51;;;;;;;16.97;6.63;;;10.00;99.90;;;10.06;100.00;98904.22;4806168;29;20972;-70
2023/10/27 07:29:20;;;;;;;16.57;7.73;;;10.00;99.90;;;10.15;100.00;98900.03;4811078;29;20424;-69
2023/10/27 07:31:48;;;;;;;12.43;6.57;;;10.00;99.90;;;10.16;100.00;98899.81;4810189;29;20449;-69
2023/10/27 07:34:17;;;;;;;11.10;5.60;;;10.00;99.90;;;10.26;100.00;98904.56;4805215;29;20455;-70
2023/10/27 07:36:45;;;;;;;12.50;6.53;;;10.10;99.90;;;10.24;100.00;98901.28;4813471;29;20444;-71
2023/10/27 07:39:17;;;;;;;15.87;6.50;;;10.20;99.90;;;10.20;100.00;98892.03;4807057;29;20465;-68
2023/10/27 07:41:45;;;;;;;19.00;10.50;;;10.10;99.90;;;10.29;100.00;98904.88;4821653;29;20463;-68
2023/10/27 07:44:14;;;;;;;9.63;4.40;;;10.20;99.90;;;10.35;100.00;98903.88;4811403;29;20457;-68
2023/10/27 07:46:42;;;;;;;15.67;8.07;;;10.20;99.90;;;10.28;100.00;98902.41;4810672;29;21013;-69
2023/10/27 07:49:11;;;;;;;13.20;5.43;;;10.20;99.90;;;10.31;100.00;98891.13;4810709;29;20485;-69
2023/10/27 07:51:40;;;;;;;20.07;7.40;;;10.30;99.90;;;10.23;100.00;98886.13;4817385;29;20452;-70
2023/10/27 07:54:08;;;;;;;12.73;7.30;;;10.20;99.90;;;10.45;100.00;98887.81;4812911;29;21008;-68
